Time,TemperatureF,DewpointF,PressureIn,WindDirection,WindDirectionDegrees,WindSpeedMPH,WindSpeedGustMPH,Humidity,HourlyPrecipIn,Conditions,Clouds,dailyrainin,SoftwareType,DateUTC
2016-02-12 00:05:00,36.0,25.0,30.17,North,0,0.0,-999.0,64,-99.99,,,-99.99,,2016-02-12 06:05:00,
2016-02-12 00:23:00,36.0,25.0,30.15,North,0,0.0,-999.0,64,-99.99,,,-99.99,,2016-02-12 06:23:00,
2016-02-12 00:36:00,30.0,25.0,30.13,North,0,0.0,-999.0,80,-99.99,,,-99.99,,2016-02-12 06:36:00,
2016-02-12 00:44:00,30.0,25.0,30.13,North,0,0.0,-999.0,80,-99.99,,,-99.99,,2016-02-12 06:44:00,
2016-02-12 01:04:00,30.0,25.0,30.15,North,0,0.0,-999.0,80,-99.99,,,-99.99,,2016-02-12 07:04:00,
2016-02-12 01:33:00,30.0,23.0,30.15,North,0,0.0,-999.0,74,-99.99,,,-99.99,,2016-02-12 07:33:00,
2016-02-12 01:44:00,30.0,23.0,30.15,North,0,0.0,-999.0,74,-99.99,,,-99.99,,2016-02-12 07:44:00,
2016-02-12 02:04:00,30.0,23.0,30.13,North,0,0.0,-999.0,74,-99.99,,,-99.99,,2016-02-12 08:04:00,
2016-02-12 02:13:00,30.0,23.0,30.13,North,0,0.0,-999.0,74,-99.99,,,-99.99,,2016-02-12 08:13:00,
2016-02-12 02:23:00,30.0,23.0,30.13,North,0,0.0,-999.0,74,-99.99,,,-99.99,,2016-02-12 08:23:00,
2016-02-12 03:23:00,32.0,25.0,30.14,North,0,0.0,-999.0,74,-99.99,,,-99.99,,2016-02-12 09:23:00,
2016-02-12 03:33:00,32.0,25.0,30.14,North,0,0.0,-999.0,74,-99.99,,,-99.99,,2016-02-12 09:33:00,
2016-02-12 03:45:00,32.0,25.0,30.14,North,0,0.0,-999.0,74,-99.99,,,-99.99,,2016-02-12 09:45:00,
2016-02-12 03:54:00,32.0,25.0,30.14,North,0,0.0,-999.0,74,-99.99,,,-99.99,,2016-02-12 09:54:00,
2016-02-12 04:23:00,32.0,25.0,30.15,North,0,0.0,-999.0,74,-99.99,,,-99.99,,2016-02-12 10:23:00,
2016-02-12 04:34:00,32.0,25.0,30.15,North,0,0.0,-999.0,74,-99.99,,,-99.99,,2016-02-12 10:34:00,
2016-02-12 04:44:00,32.0,25.0,30.15,North,0,0.0,-999.0,74,-99.99,,,-99.99,,2016-02-12 10:44:00,
2016-02-12 04:55:00,32.0,25.0,30.15,North,0,0.0,-999.0,74,-99.99,,,-99.99,,2016-02-12 10:55:00,
2016-02-12 05:06:00,32.0,25.0,30.15,North,0,0.0,-999.0,74,-99.99,,,-99.99,,2016-02-12 11:06:00,
2016-02-12 05:13:00,32.0,25.0,30.15,North,0,0.0,-999.0,74,-99.99,,,-99.99,,2016-02-12 11:13:00,
2016-02-12 08:04:00,30.0,25.0,30.22,North,0,0.0,-999.0,80,-99.99,,,-99.99,,2016-02-12 14:04:00,
2016-02-12 08:13:00,30.0,25.0,30.22,North,0,0.0,-999.0,80,-99.99,,,-99.99,,2016-02-12 14:13:00,
2016-02-12 08:24:00,30.0,25.0,30.22,North,0,0.0,-999.0,80,-99.99,,,-99.99,,2016-02-12 14:24:00,
2016-02-12 08:34:00,30.0,25.0,30.22,North,0,0.0,-999.0,80,-99.99,,,-99.99,,2016-02-12 14:34:00,
2016-02-12 09:23:00,36.0,27.0,30.26,North,350,9.0,-999.0,69,-99.99,,,-99.99,,2016-02-12 15:23:00,
2016-02-12 09:34:00,36.0,27.0,30.26,North,350,9.0,-999.0,69,-99.99,,,-99.99,,2016-02-12 15:34:00,
2016-02-12 09:44:00,36.0,27.0,30.26,North,350,9.0,-999.0,69,-99.99,,,-99.99,,2016-02-12 15:44:00,
2016-02-12 09:54:00,36.0,27.0,30.26,North,350,9.0,-999.0,69,-99.99,,,-99.99,,2016-02-12 15:54:00,
2016-02-12 10:34:00,39.0,28.0,30.30,North,10,12.0,17.0,64,-99.99,,,-99.99,,2016-02-12 16:34:00,
2016-02-12 11:04:00,39.0,28.0,30.30,North,10,12.0,17.0,64,-99.99,,,-99.99,,2016-02-12 17:04:00,